createdAt,value
2019-04-23T00:00:04.810Z,9.41
2019-04-23T00:00:09.662Z,12.76
2019-04-23T00:00:14.636Z,12.83
2019-04-23T00:00:19.639Z,12.13
2019-04-23T00:00:24.639Z,9.94
2019-04-23T00:00:29.641Z,8.76
2019-04-23T00:00:34.641Z,6.99
2019-04-23T00:00:39.642Z,6.01
2019-04-23T00:00:44.643Z,10.99
2019-04-23T00:00:49.644Z,10.86
2019-04-23T00:00:54.645Z,10.53
2019-04-23T00:00:59.646Z,11.08
2019-04-23T00:01:04.903Z,8.77
2019-04-23T00:01:09.648Z,7.71
2019-04-23T00:01:14.649Z,7.37
2019-04-23T00:01:19.652Z,7.26
2019-04-23T00:01:24.652Z,7.22
2019-04-23T00:01:29.653Z,7.21
2019-04-23T00:01:36.032Z,7.20
2019-04-23T00:01:39.655Z,6.02
2019-04-23T00:01:44.655Z,4.39
2019-04-23T00:01:49.655Z,3.86
2019-04-23T00:01:54.656Z,4.26
2019-04-23T00:01:59.986Z,3.82
2019-04-23T00:02:04.659Z,3.67
2019-04-23T00:02:09.660Z,6.10
2019-04-23T00:02:14.661Z,11.68
2019-04-23T00:02:19.661Z,11.38
2019-04-23T00:02:24.662Z,10.42
2019-04-23T00:02:29.665Z,10.67
2019-04-23T00:02:34.669Z,9.58
2019-04-23T00:02:39.667Z,7.98
2019-04-23T00:02:44.665Z,9.58
2019-04-23T00:02:49.670Z,13.19
2019-04-23T00:02:54.668Z,12.71
2019-04-23T00:02:59.678Z,10.70
2019-04-23T00:03:04.671Z,10.77
2019-04-23T00:03:09.671Z,7.07
2019-04-23T00:03:14.672Z,5.83
2019-04-23T00:03:19.673Z,4.33
2019-04-23T00:03:24.675Z,3.84
2019-04-23T00:03:29.675Z,3.10
2019-04-23T00:03:34.676Z,1.02
2019-04-23T00:03:39.679Z,1.20
2019-04-23T00:03:44.679Z,2.81
2019-04-23T00:03:49.679Z,5.76
2019-04-23T00:03:54.681Z,6.73
2019-04-23T00:03:59.682Z,7.77
2019-04-23T00:04:04.682Z,9.81
2019-04-23T00:04:09.683Z,9.90
2019-04-23T00:04:14.683Z,8.08
2019-04-23T00:04:19.685Z,7.49
2019-04-23T00:04:24.687Z,7.29
2019-04-23T00:04:29.687Z,7.23
2019-04-23T00:04:34.693Z,6.84
2019-04-23T00:04:39.697Z,7.08
2019-04-23T00:04:44.693Z,6.70
2019-04-23T00:04:49.691Z,6.74
2019-04-23T00:04:54.692Z,8.35
2019-04-23T00:04:59.703Z,9.94
2019-04-23T00:05:04.695Z,8.39
2019-04-23T00:05:09.697Z,7.59
2019-04-23T00:05:14.908Z,7.03
2019-04-23T00:05:19.699Z,6.43
2019-04-23T00:05:24.699Z,8.24
2019-04-23T00:05:29.699Z,10.42
2019-04-23T00:05:34.698Z,11.51
2019-04-23T00:05:39.702Z,9.79
2019-04-23T00:05:44.700Z,9.60
2019-04-23T00:05:49.701Z,10.41
2019-04-23T00:05:54.704Z,12.80
2019-04-23T00:05:59.705Z,11.17
2019-04-23T00:06:04.706Z,10.26
2019-04-23T00:06:09.710Z,8.87
2019-04-23T00:06:14.709Z,8.21
2019-04-23T00:06:19.709Z,8.57
2019-04-23T00:06:24.711Z,6.93
2019-04-23T00:06:29.712Z,7.11
2019-04-23T00:06:34.712Z,7.17
2019-04-23T00:06:39.712Z,6.82
2019-04-23T00:06:44.714Z,4.95
2019-04-23T00:06:49.716Z,4.04
2019-04-23T00:06:54.715Z,3.75
2019-04-23T00:06:59.782Z,5.40
2019-04-23T00:07:04.716Z,4.49
2019-04-23T00:07:09.720Z,4.26
2019-04-23T00:07:14.720Z,6.24
2019-04-23T00:07:19.722Z,9.73
2019-04-23T00:07:24.720Z,12.87
2019-04-23T00:07:29.721Z,11.77
2019-04-23T00:07:34.723Z,11.58
2019-04-23T00:07:39.731Z,11.06
2019-04-23T00:07:44.726Z,10.88
2019-04-23T00:07:49.725Z,12.58
2019-04-23T00:07:54.727Z,11.38
2019-04-23T00:07:59.730Z,10.99
2019-04-23T00:08:04.728Z,9.46
2019-04-23T00:08:09.729Z,7.94
2019-04-23T00:08:14.731Z,7.44
2019-04-23T00:08:19.732Z,6.52
2019-04-23T00:08:24.734Z,6.98
2019-04-23T00:08:29.734Z,7.13
2019-04-23T00:08:34.736Z,6.14
2019-04-23T00:08:39.743Z,6.85
2019-04-23T00:08:44.738Z,7.84
2019-04-23T00:08:49.738Z,8.71
2019-04-23T00:08:54.739Z,7.69
2019-04-23T00:08:59.740Z,7.36
2019-04-23T00:09:04.748Z,6.96
2019-04-23T00:09:09.742Z,5.46
2019-04-23T00:09:14.745Z,4.21
2019-04-23T00:09:19.744Z,4.52
2019-04-23T00:09:24.746Z,7.15
2019-04-23T00:09:29.746Z,9.24
2019-04-23T00:09:34.748Z,8.99
2019-04-23T00:09:39.752Z,7.79
2019-04-23T00:09:44.749Z,9.15
2019-04-23T00:09:49.749Z,10.26
2019-04-23T00:09:54.754Z,10.62
2019-04-23T00:09:59.751Z,11.69
2019-04-23T00:10:04.752Z,11.09
2019-04-23T00:10:09.754Z,11.26
2019-04-23T00:10:14.755Z,10.23
2019-04-23T00:10:19.756Z,8.19
2019-04-23T00:10:24.756Z,8.35
2019-04-23T00:10:29.758Z,7.58
2019-04-23T00:10:34.759Z,6.38
2019-04-23T00:10:39.764Z,4.51
2019-04-23T00:10:44.761Z,3.90
2019-04-23T00:10:49.762Z,5.82
2019-04-23T00:10:54.763Z,5.80
2019-04-23T00:10:59.763Z,5.65
2019-04-23T00:11:04.764Z,6.69
2019-04-23T00:11:09.767Z,7.03
2019-04-23T00:11:14.766Z,7.15
2019-04-23T00:11:19.765Z,7.18
2019-04-23T00:11:24.767Z,9.87
2019-04-23T00:11:29.768Z,8.74
2019-04-23T00:11:34.769Z,5.58
2019-04-23T00:11:40.070Z,7.30
2019-04-23T00:11:44.770Z,11.78
2019-04-23T00:11:49.773Z,12.25
2019-04-23T00:11:54.779Z,13.40
2019-04-23T00:11:59.774Z,12.32
2019-04-23T00:12:04.776Z,10.12
2019-04-23T00:12:09.780Z,8.16
2019-04-23T00:12:14.781Z,7.51
2019-04-23T00:12:19.778Z,9.06
2019-04-23T00:12:24.779Z,9.51
2019-04-23T00:12:29.780Z,10.01
2019-04-23T00:12:34.853Z,8.78
2019-04-23T00:12:39.784Z,7.26
2019-04-23T00:12:44.785Z,7.22
2019-04-23T00:12:49.783Z,7.21
2019-04-23T00:12:54.784Z,6.83
2019-04-23T00:12:59.787Z,6.71
2019-04-23T00:13:04.787Z,7.76
2019-04-23T00:13:09.788Z,9.80
2019-04-23T00:13:14.789Z,12.17
2019-04-23T00:13:19.789Z,10.53
2019-04-23T00:13:24.791Z,10.42
2019-04-23T00:13:29.793Z,10.67
2019-04-23T00:13:34.795Z,8.91
2019-04-23T00:13:39.793Z,9.15
2019-04-23T00:13:44.794Z,9.24
2019-04-23T00:13:49.795Z,9.27
2019-04-23T00:13:54.798Z,8.17
2019-04-23T00:13:59.800Z,7.15
2019-04-23T00:14:04.802Z,7.18
2019-04-23T00:14:09.801Z,7.19
2019-04-23T00:14:14.801Z,6.62
2019-04-23T00:14:19.803Z,7.01
2019-04-23T00:14:24.802Z,7.14
2019-04-23T00:14:29.804Z,8.22
2019-04-23T00:14:34.807Z,7.53
2019-04-23T00:14:39.807Z,8.49
2019-04-23T00:14:44.807Z,10.04
2019-04-23T00:14:49.808Z,10.92
2019-04-23T00:14:54.811Z,9.54
2019-04-23T00:14:59.809Z,7.97
2019-04-23T00:15:04.811Z,7.45
2019-04-23T00:15:09.811Z,6.56
2019-04-23T00:15:14.813Z,5.15
2019-04-23T00:15:19.813Z,5.86
2019-04-23T00:15:24.815Z,8.89
2019-04-23T00:15:29.815Z,8.05
2019-04-23T00:15:34.819Z,5.93
2019-04-23T00:15:39.818Z,6.78
2019-04-23T00:15:44.818Z,7.06
2019-04-23T00:15:49.819Z,7.16
2019-04-23T00:15:54.820Z,7.19
2019-04-23T00:15:59.821Z,7.20
2019-04-23T00:16:04.865Z,7.20
2019-04-23T00:16:09.865Z,6.62
2019-04-23T00:16:14.867Z,6.55
2019-04-23T00:16:19.868Z,8.23
2019-04-23T00:16:24.869Z,9.96
2019-04-23T00:16:29.870Z,10.52
2019-04-23T00:16:34.879Z,9.67
2019-04-23T00:16:40.016Z,8.01
2019-04-23T00:16:44.874Z,7.47
2019-04-23T00:16:49.873Z,5.99
2019-04-23T00:16:54.876Z,5.10
2019-04-23T00:16:59.874Z,5.85
2019-04-23T00:17:04.877Z,6.76
2019-04-23T00:17:09.876Z,8.35
2019-04-23T00:17:14.879Z,10.00
2019-04-23T00:17:19.879Z,10.54
2019-04-23T00:17:24.880Z,8.29
2019-04-23T00:17:29.881Z,8.68
2019-04-23T00:17:34.888Z,8.98
2019-04-23T00:17:39.883Z,7.78
2019-04-23T00:17:44.901Z,6.82
2019-04-23T00:17:49.883Z,6.71
2019-04-23T00:17:54.887Z,9.16
2019-04-23T00:17:59.889Z,12.68
2019-04-23T00:18:04.886Z,12.08
2019-04-23T00:18:09.888Z,11.59
2019-04-23T00:18:14.966Z,11.06
2019-04-23T00:18:19.890Z,9.18
2019-04-23T00:18:24.891Z,9.55
2019-04-23T00:18:29.895Z,7.97
2019-04-23T00:18:34.893Z,6.27
2019-04-23T00:18:39.895Z,4.77
2019-04-23T00:18:44.894Z,3.98
2019-04-23T00:18:49.896Z,5.39
2019-04-23T00:18:54.897Z,5.31
2019-04-23T00:18:59.899Z,4.16
2019-04-23T00:19:04.899Z,3.78
2019-04-23T00:19:09.899Z,3.66
2019-04-23T00:19:14.901Z,3.62
2019-04-23T00:19:19.903Z,4.33
2019-04-23T00:19:24.902Z,4.59
2019-04-23T00:19:29.904Z,5.68
2019-04-23T00:19:34.906Z,6.70
2019-04-23T00:19:39.907Z,7.04
2019-04-23T00:19:44.907Z,7.15
2019-04-23T00:19:49.912Z,7.18
2019-04-23T00:19:54.910Z,7.19
2019-04-23T00:19:59.910Z,6.90
2019-04-23T00:20:04.911Z,6.64
2019-04-23T00:20:09.912Z,7.74
2019-04-23T00:20:14.916Z,10.17
2019-04-23T00:20:19.913Z,10.22
2019-04-23T00:20:24.922Z,8.19
2019-04-23T00:20:29.915Z,9.94
2019-04-23T00:20:34.916Z,10.52
2019-04-23T00:20:39.920Z,9.01
2019-04-23T00:20:44.918Z,8.74
2019-04-23T00:20:49.919Z,7.70
2019-04-23T00:20:54.920Z,7.37
2019-04-23T00:20:59.920Z,7.25
2019-04-23T00:21:04.922Z,7.22
2019-04-23T00:21:09.932Z,7.93
2019-04-23T00:21:14.923Z,9.86
2019-04-23T00:21:19.924Z,10.49
2019-04-23T00:21:24.932Z,9.61
2019-04-23T00:21:29.930Z,9.29
2019-04-23T00:21:34.929Z,10.30
2019-04-23T00:21:39.928Z,11.01
2019-04-23T00:21:44.929Z,10.15
2019-04-23T00:21:49.932Z,8.17
2019-04-23T00:21:54.931Z,6.22
2019-04-23T00:21:59.935Z,4.75
2019-04-23T00:22:04.935Z,4.92
2019-04-23T00:22:09.937Z,4.03
2019-04-23T00:22:14.936Z,6.16
2019-04-23T00:22:19.937Z,6.86
2019-04-23T00:22:24.937Z,4.96
2019-04-23T00:22:29.938Z,4.05
2019-04-23T00:22:34.940Z,3.75
2019-04-23T00:22:39.942Z,3.65
2019-04-23T00:22:45.095Z,3.62
2019-04-23T00:22:49.942Z,3.61
2019-04-23T00:22:54.943Z,3.60
2019-04-23T00:22:59.945Z,4.90
2019-04-23T00:23:04.948Z,8.87
2019-04-23T00:23:09.946Z,10.17
2019-04-23T00:23:14.947Z,10.59
2019-04-23T00:23:19.949Z,10.36
2019-04-23T00:23:24.997Z,9.90
2019-04-23T00:23:29.951Z,8.75
2019-04-23T00:23:34.953Z,6.99
2019-04-23T00:23:39.953Z,7.13
2019-04-23T00:23:44.953Z,4.76
2019-04-23T00:23:49.955Z,6.10
2019-04-23T00:23:54.955Z,6.84
2019-04-23T00:23:59.956Z,6.79
2019-04-23T00:24:04.956Z,7.06
2019-04-23T00:24:09.957Z,7.16
2019-04-23T00:24:14.961Z,5.64
2019-04-23T00:24:19.959Z,6.11
2019-04-23T00:24:24.962Z,6.84
2019-04-23T00:24:29.965Z,7.08
2019-04-23T00:24:34.962Z,7.16
2019-04-23T00:24:39.965Z,7.19
2019-04-23T00:24:44.964Z,9.32
2019-04-23T00:24:49.966Z,11.35
2019-04-23T00:24:54.967Z,10.98
2019-04-23T00:24:59.968Z,10.86
2019-04-23T00:25:04.970Z,8.40
2019-04-23T00:25:09.971Z,7.59
2019-04-23T00:25:14.970Z,11.41
2019-04-23T00:25:19.973Z,13.42
2019-04-23T00:25:24.972Z,12.78
2019-04-23T00:25:29.973Z,13.00
2019-04-23T00:25:34.976Z,12.28
2019-04-23T00:25:39.975Z,11.28
2019-04-23T00:25:44.975Z,10.96
2019-04-23T00:25:49.978Z,10.28
2019-04-23T00:25:54.978Z,10.63
2019-04-23T00:25:59.982Z,9.45
2019-04-23T00:26:04.980Z,8.60
2019-04-23T00:26:09.980Z,8.38
2019-04-23T00:26:14.982Z,7.59
2019-04-23T00:26:19.984Z,8.05
2019-04-23T00:26:24.986Z,9.90
2019-04-23T00:26:29.986Z,8.08
2019-04-23T00:26:34.986Z,7.12
2019-04-23T00:26:39.987Z,5.42
2019-04-23T00:26:44.988Z,7.34
2019-04-23T00:26:49.988Z,7.54
2019-04-23T00:26:54.991Z,8.03
2019-04-23T00:26:59.991Z,7.47
2019-04-23T00:27:04.993Z,7.66
2019-04-23T00:27:09.994Z,7.35
2019-04-23T00:27:14.994Z,5.95
2019-04-23T00:27:19.996Z,4.74
2019-04-23T00:27:24.997Z,3.97
2019-04-23T00:27:29.997Z,4.30
2019-04-23T00:27:34.997Z,5.49
2019-04-23T00:27:40.000Z,4.88
2019-04-23T00:27:45.000Z,4.02
2019-04-23T00:27:50.001Z,5.49
2019-04-23T00:27:55.005Z,7.47
2019-04-23T00:28:00.008Z,8.01
2019-04-23T00:28:05.006Z,9.89
2019-04-23T00:28:10.008Z,10.50
2019-04-23T00:28:15.009Z,9.41
2019-04-23T00:28:20.158Z,9.22
2019-04-23T00:28:25.010Z,10.28
2019-04-23T00:28:30.011Z,8.79
2019-04-23T00:28:35.010Z,8.01
2019-04-23T00:28:40.012Z,9.22
2019-04-23T00:28:45.012Z,9.56
2019-04-23T00:28:50.012Z,10.39
2019-04-23T00:28:55.015Z,9.63
2019-04-23T00:29:00.329Z,10.42
2019-04-23T00:29:05.017Z,9.38
2019-04-23T00:29:10.016Z,7.91
2019-04-23T00:29:15.017Z,7.43
2019-04-23T00:29:20.019Z,7.28
2019-04-23T00:29:25.022Z,7.23
2019-04-23T00:29:30.020Z,7.21
2019-04-23T00:29:35.022Z,7.20
2019-04-23T00:29:40.023Z,8.90
2019-04-23T00:29:45.023Z,7.76
2019-04-23T00:29:50.025Z,7.68
2019-04-23T00:29:55.024Z,7.36
2019-04-23T00:30:00.027Z,5.13
2019-04-23T00:30:05.028Z,4.10
2019-04-23T00:30:10.030Z,5.52
2019-04-23T00:30:15.031Z,6.65
2019-04-23T00:30:20.030Z,7.02
2019-04-23T00:30:25.034Z,7.14
2019-04-23T00:30:30.032Z,6.81
2019-04-23T00:30:35.034Z,7.07
2019-04-23T00:30:40.036Z,6.44
2019-04-23T00:30:45.036Z,5.54
2019-04-23T00:30:50.035Z,5.42
2019-04-23T00:30:55.036Z,6.32
2019-04-23T00:31:00.040Z,7.37
2019-04-23T00:31:05.038Z,8.92
2019-04-23T00:31:10.041Z,9.61
2019-04-23T00:31:15.041Z,8.65
2019-04-23T00:31:20.042Z,6.64
2019-04-23T00:31:25.041Z,7.74
2019-04-23T00:31:30.043Z,7.67
2019-04-23T00:31:35.047Z,8.65
2019-04-23T00:31:40.047Z,8.80
2019-04-23T00:31:45.050Z,8.18
2019-04-23T00:31:50.047Z,8.35
2019-04-23T00:31:55.205Z,10.05
2019-04-23T00:32:00.056Z,10.92
2019-04-23T00:32:05.057Z,10.26
2019-04-23T00:32:10.053Z,7.48
2019-04-23T00:32:15.052Z,7.29
2019-04-23T00:32:20.053Z,6.86
2019-04-23T00:32:25.055Z,6.79
2019-04-23T00:32:30.056Z,7.07
2019-04-23T00:32:35.058Z,9.28
2019-04-23T00:32:40.065Z,12.35
2019-04-23T00:32:45.061Z,11.31
2019-04-23T00:32:50.060Z,10.97
2019-04-23T00:32:55.060Z,10.85
2019-04-23T00:33:00.062Z,10.82
2019-04-23T00:33:05.062Z,10.81
2019-04-23T00:33:10.065Z,8.68
2019-04-23T00:33:15.064Z,10.10
2019-04-23T00:33:20.065Z,10.57
2019-04-23T00:33:25.067Z,10.73
2019-04-23T00:33:30.067Z,10.78
2019-04-23T00:33:35.068Z,8.67
2019-04-23T00:33:40.070Z,7.68
2019-04-23T00:33:45.079Z,8.11
2019-04-23T00:33:50.072Z,7.50
2019-04-23T00:33:55.071Z,7.30
2019-04-23T00:34:00.072Z,6.86
2019-04-23T00:34:05.076Z,8.09
2019-04-23T00:34:10.074Z,9.54
2019-04-23T00:34:15.079Z,12.05
2019-04-23T00:34:20.076Z,12.33
2019-04-23T00:34:25.078Z,9.18
2019-04-23T00:34:30.080Z,6.90
2019-04-23T00:34:35.082Z,7.10
2019-04-23T00:34:40.082Z,5.99
2019-04-23T00:34:45.083Z,4.75
2019-04-23T00:34:50.085Z,3.98
2019-04-23T00:34:55.083Z,6.14
2019-04-23T00:35:00.087Z,6.85
2019-04-23T00:35:05.084Z,7.09
2019-04-23T00:35:10.086Z,8.92
2019-04-23T00:35:15.233Z,7.76
2019-04-23T00:35:20.091Z,5.63
2019-04-23T00:35:25.091Z,4.98
2019-04-23T00:35:30.092Z,6.18
2019-04-23T00:35:35.093Z,6.87
2019-04-23T00:35:40.094Z,9.51
2019-04-23T00:35:45.356Z,8.33
2019-04-23T00:35:50.095Z,6.53
2019-04-23T00:35:55.098Z,6.98
2019-04-23T00:36:00.099Z,7.13
2019-04-23T00:36:05.102Z,7.75
2019-04-23T00:36:10.099Z,7.38
2019-04-23T00:36:15.101Z,7.26
2019-04-23T00:36:20.102Z,7.22
2019-04-23T00:36:25.101Z,5.91
2019-04-23T00:36:30.102Z,6.48
2019-04-23T00:36:35.163Z,9.85
2019-04-23T00:36:40.103Z,10.49
2019-04-23T00:36:45.105Z,10.70
2019-04-23T00:36:50.110Z,12.06
2019-04-23T00:36:55.107Z,11.21
2019-04-23T00:37:00.109Z,8.52
2019-04-23T00:37:05.109Z,8.21
2019-04-23T00:37:10.109Z,9.29
2019-04-23T00:37:15.112Z,8.18
2019-04-23T00:37:20.112Z,7.52
2019-04-23T00:37:25.132Z,8.60
2019-04-23T00:37:30.135Z,10.74
2019-04-23T00:37:35.136Z,8.66
2019-04-23T00:37:40.135Z,8.97
2019-04-23T00:37:45.139Z,10.57
2019-04-23T00:37:50.138Z,9.06
2019-04-23T00:37:55.577Z,7.35
2019-04-23T00:38:00.139Z,9.37
2019-04-23T00:38:05.140Z,8.21
2019-04-23T00:38:10.143Z,7.53
2019-04-23T00:38:15.144Z,7.31
2019-04-23T00:38:20.144Z,6.87
2019-04-23T00:38:25.144Z,7.09
2019-04-23T00:38:30.145Z,7.16
2019-04-23T00:38:35.145Z,7.19
2019-04-23T00:38:40.147Z,7.20
2019-04-23T00:38:45.149Z,6.48
2019-04-23T00:38:50.148Z,6.96
2019-04-23T00:38:55.152Z,7.12
2019-04-23T00:39:00.152Z,7.17
2019-04-23T00:39:05.265Z,7.77
2019-04-23T00:39:10.154Z,8.05
2019-04-23T00:39:15.153Z,7.77
2019-04-23T00:39:20.156Z,7.39
2019-04-23T00:39:25.158Z,7.26
2019-04-23T00:39:30.429Z,7.22
2019-04-23T00:39:35.159Z,6.63
2019-04-23T00:39:40.161Z,6.44
2019-04-23T00:39:45.161Z,4.53
2019-04-23T00:39:50.166Z,4.48
2019-04-23T00:39:55.162Z,6.31
2019-04-23T00:40:00.188Z,6.91
2019-04-23T00:40:05.165Z,6.74
2019-04-23T00:40:10.164Z,9.52
2019-04-23T00:40:15.166Z,13.17
2019-04-23T00:40:20.171Z,10.58
2019-04-23T00:40:25.212Z,9.03
2019-04-23T00:40:30.170Z,8.92
2019-04-23T00:40:35.170Z,7.30
2019-04-23T00:40:40.172Z,8.53
2019-04-23T00:40:45.171Z,10.06
2019-04-23T00:40:50.174Z,11.59
2019-04-23T00:40:55.577Z,14.78
2019-04-23T00:41:00.176Z,12.77
2019-04-23T00:41:05.177Z,12.85
2019-04-23T00:41:10.179Z,12.42
2019-04-23T00:41:15.176Z,11.62
2019-04-23T00:41:20.181Z,9.41
2019-04-23T00:41:25.180Z,7.92
2019-04-23T00:41:30.182Z,7.44
2019-04-23T00:41:35.181Z,9.03
2019-04-23T00:41:40.183Z,8.10
2019-04-23T00:41:45.183Z,9.16
2019-04-23T00:41:50.186Z,9.80
2019-04-23T00:41:55.186Z,10.47
2019-04-23T00:42:00.186Z,8.94
2019-04-23T00:42:05.194Z,5.64
2019-04-23T00:42:10.187Z,4.27
2019-04-23T00:42:15.189Z,7.54
2019-04-23T00:42:20.192Z,10.19
2019-04-23T00:42:25.193Z,10.60
2019-04-23T00:42:30.234Z,9.55
2019-04-23T00:42:35.194Z,10.39
2019-04-23T00:42:40.196Z,10.67
2019-04-23T00:42:45.195Z,10.30
2019-04-23T00:42:50.208Z,10.17
2019-04-23T00:42:55.196Z,11.26
2019-04-23T00:43:00.198Z,9.19
2019-04-23T00:43:05.198Z,7.85
2019-04-23T00:43:10.200Z,8.80
2019-04-23T00:43:15.205Z,9.48
2019-04-23T00:43:20.203Z,10.37
2019-04-23T00:43:25.203Z,10.36
2019-04-23T00:43:30.204Z,10.66
2019-04-23T00:43:35.208Z,10.03
2019-04-23T00:43:40.205Z,8.13
2019-04-23T00:43:45.598Z,8.22
2019-04-23T00:43:50.208Z,7.54
2019-04-23T00:43:55.210Z,7.31
2019-04-23T00:44:00.212Z,6.52
2019-04-23T00:44:05.211Z,6.15
2019-04-23T00:44:10.211Z,8.61
2019-04-23T00:44:15.213Z,8.79
2019-04-23T00:44:20.215Z,7.72
2019-04-23T00:44:25.215Z,6.65
2019-04-23T00:44:30.216Z,7.02
2019-04-23T00:44:35.217Z,9.27
2019-04-23T00:44:40.222Z,10.30
2019-04-23T00:44:45.220Z,8.51
2019-04-23T00:44:50.221Z,9.75
2019-04-23T00:44:55.219Z,9.16
2019-04-23T00:45:00.221Z,8.71
2019-04-23T00:45:05.222Z,7.70
2019-04-23T00:45:10.224Z,5.24
2019-04-23T00:45:15.224Z,5.89
2019-04-23T00:45:20.225Z,6.05
2019-04-23T00:45:25.702Z,6.82
2019-04-23T00:45:30.227Z,8.26
2019-04-23T00:45:35.228Z,9.97
2019-04-23T00:45:40.229Z,8.77
2019-04-23T00:45:45.231Z,7.71
2019-04-23T00:45:50.233Z,7.37
2019-04-23T00:45:55.231Z,9.01
2019-04-23T00:46:00.234Z,10.21
2019-04-23T00:46:05.236Z,10.61
2019-04-23T00:46:10.234Z,8.32
2019-04-23T00:46:15.236Z,6.70
2019-04-23T00:46:20.237Z,6.28
2019-04-23T00:46:25.242Z,6.90
2019-04-23T00:46:30.238Z,7.10
2019-04-23T00:46:35.241Z,7.89
2019-04-23T00:46:40.668Z,9.85
2019-04-23T00:46:45.243Z,8.44
2019-04-23T00:46:50.245Z,7.60
2019-04-23T00:46:55.244Z,6.96
2019-04-23T00:47:00.245Z,5.46
2019-04-23T00:47:05.252Z,5.50
2019-04-23T00:47:10.246Z,7.36
2019-04-23T00:47:15.247Z,9.67
2019-04-23T00:47:20.879Z,10.43
2019-04-23T00:47:25.272Z,9.96
2019-04-23T00:47:30.251Z,8.10
2019-04-23T00:47:35.253Z,7.50
2019-04-23T00:47:40.252Z,5.25
2019-04-23T00:47:45.255Z,5.90
2019-04-23T00:47:50.255Z,10.65
2019-04-23T00:47:55.256Z,11.42
2019-04-23T00:48:00.257Z,12.76
2019-04-23T00:48:05.260Z,13.86
2019-04-23T00:48:10.257Z,13.65
2019-04-23T00:48:15.260Z,11.27
2019-04-23T00:48:20.261Z,9.11
2019-04-23T00:48:25.262Z,7.83
2019-04-23T00:48:30.528Z,8.13
2019-04-23T00:48:35.265Z,11.22
2019-04-23T00:48:40.266Z,10.94
2019-04-23T00:48:45.265Z,8.42
2019-04-23T00:48:50.268Z,7.60
2019-04-23T00:48:55.268Z,7.33
2019-04-23T00:49:00.270Z,7.96
2019-04-23T00:49:05.270Z,7.45
2019-04-23T00:49:10.272Z,4.86
2019-04-23T00:49:15.272Z,4.01
2019-04-23T00:49:20.272Z,6.73
2019-04-23T00:49:25.273Z,7.05
2019-04-23T00:49:30.275Z,4.73
2019-04-23T00:49:35.276Z,6.39
2019-04-23T00:49:40.276Z,7.65
2019-04-23T00:49:45.276Z,7.72
2019-04-23T00:49:50.279Z,7.37
2019-04-23T00:49:55.280Z,7.26
2019-04-23T00:50:00.280Z,7.22
2019-04-23T00:50:05.281Z,6.49
2019-04-23T00:50:10.280Z,6.30
2019-04-23T00:50:15.282Z,5.61
2019-04-23T00:50:20.284Z,5.55
2019-04-23T00:50:25.287Z,8.42
2019-04-23T00:50:30.286Z,9.44
2019-04-23T00:50:35.287Z,8.60
2019-04-23T00:50:40.288Z,7.66
2019-04-23T00:50:45.289Z,7.35
2019-04-23T00:50:50.288Z,7.25
2019-04-23T00:50:55.762Z,7.22
2019-04-23T00:51:00.292Z,6.49
2019-04-23T00:51:05.293Z,5.42
2019-04-23T00:51:10.293Z,4.56
2019-04-23T00:51:15.296Z,6.76
2019-04-23T00:51:20.617Z,9.48
2019-04-23T00:51:25.295Z,10.37
2019-04-23T00:51:30.298Z,9.79
2019-04-23T00:51:35.300Z,9.23
2019-04-23T00:51:40.300Z,8.16
2019-04-23T00:51:45.300Z,7.51
2019-04-23T00:51:50.303Z,5.18
2019-04-23T00:51:55.302Z,4.84
2019-04-23T00:52:00.303Z,7.72
2019-04-23T00:52:05.305Z,10.62
2019-04-23T00:52:10.305Z,9.81
2019-04-23T00:52:15.608Z,9.24
2019-04-23T00:52:20.308Z,10.29
2019-04-23T00:52:25.309Z,8.58
2019-04-23T00:52:30.310Z,8.74
2019-04-23T00:52:35.313Z,7.70
2019-04-23T00:52:40.310Z,7.37
2019-04-23T00:52:45.311Z,10.31
2019-04-23T00:52:50.314Z,11.30
2019-04-23T00:52:55.313Z,10.96
2019-04-23T00:53:00.315Z,11.31
2019-04-23T00:53:05.318Z,9.01
2019-04-23T00:53:10.317Z,9.46
2019-04-23T00:53:15.331Z,8.70
2019-04-23T00:53:20.321Z,8.06
2019-04-23T00:53:25.319Z,6.91
2019-04-23T00:53:30.321Z,5.70
2019-04-23T00:53:35.323Z,6.71
2019-04-23T00:53:40.322Z,5.28
2019-04-23T00:53:45.323Z,5.45
2019-04-23T00:53:50.324Z,8.38
2019-04-23T00:53:55.327Z,10.01
2019-04-23T00:54:00.326Z,8.12
2019-04-23T00:54:05.326Z,6.03
2019-04-23T00:54:10.330Z,4.76
2019-04-23T00:54:15.330Z,6.11
2019-04-23T00:54:20.331Z,6.84
2019-04-23T00:54:25.332Z,5.90
2019-04-23T00:54:30.334Z,5.95
2019-04-23T00:54:35.413Z,9.21
2019-04-23T00:54:40.335Z,7.86
2019-04-23T00:54:45.336Z,7.42
2019-04-23T00:54:50.337Z,7.27
2019-04-23T00:54:55.339Z,5.82
2019-04-23T00:55:00.338Z,5.99
2019-04-23T00:55:05.341Z,8.56
2019-04-23T00:55:10.341Z,10.07
2019-04-23T00:55:15.341Z,9.98
2019-04-23T00:55:20.342Z,11.83
2019-04-23T00:55:25.347Z,11.89
2019-04-23T00:55:30.348Z,13.12
2019-04-23T00:55:35.346Z,13.26
2019-04-23T00:55:40.344Z,10.31
2019-04-23T00:55:45.347Z,7.76
2019-04-23T00:55:50.556Z,7.38
2019-04-23T00:55:55.350Z,8.27
2019-04-23T00:56:00.350Z,9.25
2019-04-23T00:56:05.352Z,7.87
2019-04-23T00:56:10.353Z,6.96
2019-04-23T00:56:15.493Z,7.12
2019-04-23T00:56:20.353Z,8.93
2019-04-23T00:56:25.535Z,10.19
2019-04-23T00:56:30.355Z,9.30
2019-04-23T00:56:35.357Z,7.89
2019-04-23T00:56:40.360Z,9.85
2019-04-23T00:56:45.359Z,10.95
2019-04-23T00:56:50.359Z,11.51
2019-04-23T00:56:55.360Z,9.65
2019-04-23T00:57:00.362Z,8.00
2019-04-23T00:57:05.361Z,7.46
2019-04-23T00:57:10.363Z,7.29
2019-04-23T00:57:15.366Z,7.23
2019-04-23T00:57:20.365Z,5.54
2019-04-23T00:57:25.367Z,5.71
2019-04-23T00:57:30.367Z,6.77
2019-04-23T00:57:35.369Z,9.48
2019-04-23T00:57:40.369Z,11.66
2019-04-23T00:57:45.377Z,11.75
2019-04-23T00:57:50.378Z,11.11
2019-04-23T00:57:55.381Z,8.85
2019-04-23T00:58:00.381Z,9.04
2019-04-23T00:58:05.382Z,9.76
2019-04-23T00:58:10.381Z,12.05
2019-04-23T00:58:15.382Z,13.57
2019-04-23T00:58:20.383Z,11.71
2019-04-23T00:58:25.384Z,11.10
2019-04-23T00:58:30.386Z,9.14
2019-04-23T00:58:35.386Z,6.89
2019-04-23T00:58:40.388Z,7.10
2019-04-23T00:58:45.485Z,8.18
2019-04-23T00:58:50.402Z,8.28
2019-04-23T00:58:55.390Z,7.55
2019-04-23T00:59:00.391Z,7.32
2019-04-23T00:59:05.392Z,7.24
2019-04-23T00:59:10.393Z,9.91
2019-04-23T00:59:15.396Z,9.21
2019-04-23T00:59:20.397Z,7.86
2019-04-23T00:59:25.397Z,7.71
2019-04-23T00:59:30.399Z,7.37
2019-04-23T00:59:35.401Z,8.59
2019-04-23T00:59:40.400Z,10.79
2019-04-23T00:59:45.400Z,12.64
2019-04-23T00:59:50.403Z,11.40
2019-04-23T00:59:55.408Z,11.00
2019-04-23T01:00:00.402Z,10.14
2019-04-23T01:00:05.404Z,8.83
2019-04-23T01:00:10.406Z,7.73
2019-04-23T01:00:15.406Z,7.67
2019-04-23T01:00:20.408Z,9.11
2019-04-23T01:00:25.410Z,8.12
2019-04-23T01:00:30.411Z,7.50
2019-04-23T01:00:35.408Z,7.30
2019-04-23T01:00:40.416Z,6.77
2019-04-23T01:00:45.412Z,6.23
2019-04-23T01:00:50.414Z,8.55
2019-04-23T01:00:55.416Z,10.52
2019-04-23T01:01:00.419Z,10.71
2019-04-23T01:01:05.415Z,10.19
2019-04-23T01:01:10.416Z,10.60
2019-04-23T01:01:15.418Z,8.68
2019-04-23T01:01:20.418Z,10.11
2019-04-23T01:01:25.420Z,10.57
2019-04-23T01:01:30.421Z,10.73
2019-04-23T01:01:36.043Z,10.78
2019-04-23T01:01:40.422Z,11.51
2019-04-23T01:01:45.427Z,10.31
2019-04-23T01:01:50.425Z,9.34
2019-04-23T01:01:55.427Z,7.90
2019-04-23T01:02:00.429Z,7.43
2019-04-23T01:02:05.427Z,9.40
2019-04-23T01:02:10.431Z,10.34
2019-04-23T01:02:15.430Z,10.65
2019-04-23T01:02:20.432Z,11.70
2019-04-23T01:02:25.431Z,12.76
2019-04-23T01:02:30.435Z,12.11
2019-04-23T01:02:35.434Z,10.86
2019-04-23T01:02:40.435Z,9.78
2019-04-23T01:02:45.435Z,8.88
2019-04-23T01:02:50.437Z,7.75
2019-04-23T01:02:55.438Z,10.52
2019-04-23T01:03:00.439Z,11.37
2019-04-23T01:03:05.440Z,8.86
2019-04-23T01:03:10.447Z,7.74
2019-04-23T01:03:15.443Z,8.67
2019-04-23T01:03:20.446Z,10.10
2019-04-23T01:03:25.444Z,9.39
2019-04-23T01:03:30.447Z,7.92
2019-04-23T01:03:35.447Z,5.77
2019-04-23T01:03:40.447Z,6.44
2019-04-23T01:03:45.448Z,5.86
2019-04-23T01:03:50.448Z,6.76
2019-04-23T01:03:55.448Z,9.48
2019-04-23T01:04:00.449Z,10.37
2019-04-23T01:04:05.452Z,8.90
2019-04-23T01:04:10.452Z,7.30
2019-04-23T01:04:15.453Z,7.23
2019-04-23T01:04:20.455Z,7.21
2019-04-23T01:04:25.455Z,4.78
2019-04-23T01:04:30.455Z,3.99
2019-04-23T01:04:35.459Z,3.73
2019-04-23T01:04:40.460Z,3.64
2019-04-23T01:04:45.465Z,2.74
2019-04-23T01:04:50.460Z,4.62
2019-04-23T01:04:55.459Z,8.77
2019-04-23T01:05:00.463Z,7.72
2019-04-23T01:05:05.463Z,9.49
2019-04-23T01:05:10.463Z,8.25
2019-04-23T01:05:16.009Z,9.96
2019-04-23T01:05:20.468Z,8.40
2019-04-23T01:05:25.467Z,6.30
2019-04-23T01:05:30.468Z,6.90
2019-04-23T01:05:35.469Z,8.40
2019-04-23T01:05:40.471Z,7.59
2019-04-23T01:05:45.473Z,10.47
2019-04-23T01:05:50.470Z,10.69
2019-04-23T01:05:55.473Z,12.24
2019-04-23T01:06:00.473Z,11.57
2019-04-23T01:06:05.476Z,9.46